Time;durP1;ratioP1;P1;durP2;ratioP2;P2;SDS_P1;SDS_P2;PMS_P1;PMS_P2;Temp;Humidity;BMP_temperature;BMP_pressure;BME280_temperature;BME280_humidity;BME280_pressure;Samples;Min_cycle;Max_cycle;Signal;HPM_P1;HPM_P2
2021/03/07 00:00:44;;;;;;;12.18;7.82;;;;;;;;;;5035658;28;20052;-70
2021/03/07 00:03:10;;;;;;;11.27;7.30;;;;;;;;;;5035580;28;20063;-69
2021/03/07 00:05:36;;;;;;;14.65;8.25;;;;;;;;;;5052469;28;20084;-70
2021/03/07 00:08:02;;;;;;;13.48;8.15;;;;;;;;;;5018838;28;20539;-70
2021/03/07 00:10:29;;;;;;;14.00;8.38;;;;;;;;;;5035505;28;20087;-70
2021/03/07 00:12:55;;;;;;;13.95;8.48;;;;;;;;;;5046526;28;20516;-70
2021/03/07 00:15:22;;;;;;;13.15;8.00;;;;;;;;;;5034712;28;20110;-70
2021/03/07 00:17:49;;;;;;;13.02;7.88;;;;;;;;;;5035559;28;20076;-70
2021/03/07 00:20:16;;;;;;;16.00;8.35;;;;;;;;;;5051134;28;20049;-70
2021/03/07 00:22:43;;;;;;;14.98;8.20;;;;;;;;;;5034802;28;20045;-70
2021/03/07 00:25:10;;;;;;;12.45;8.43;;;;;;;;;;5051191;28;20466;-70
2021/03/07 00:27:37;;;;;;;15.05;8.13;;;;;;;;;;5034871;28;20053;-69
2021/03/07 00:30:05;;;;;;;15.30;9.23;;;;;;;;;;5050489;28;20546;-70
2021/03/07 00:32:32;;;;;;;12.30;8.38;;;;;;;;;;5034949;28;20091;-70
2021/03/07 00:34:58;;;;;;;11.13;7.90;;;;;;;;;;5051270;28;20491;-69
2021/03/07 00:37:25;;;;;;;14.20;8.43;;;;;;;;;;5034190;28;20539;-69
2021/03/07 00:39:51;;;;;;;13.15;8.77;;;;;;;;;;5051578;28;20106;-69
2021/03/07 00:42:17;;;;;;;17.30;9.35;;;;;;;;;;5052450;28;20462;-69
2021/03/07 00:44:43;;;;;;;12.90;8.85;;;;;;;;;;5051220;28;20099;-69
2021/03/07 00:47:12;;;;;;;13.68;9.02;;;;;;;;;;5050603;28;20049;-70
2021/03/07 00:49:38;;;;;;;13.63;9.15;;;;;;;;;;5051179;28;20565;-69
2021/03/07 00:52:05;;;;;;;13.80;9.07;;;;;;;;;;5034766;28;20049;-70
2021/03/07 00:54:31;;;;;;;12.40;8.40;;;;;;;;;;5052253;28;20041;-69
2021/03/07 00:56:57;;;;;;;14.75;8.55;;;;;;;;;;5051772;28;20088;-70
2021/03/07 00:59:23;;;;;;;17.15;7.70;;;;;;;;;;5018169;28;20056;-70
2021/03/07 01:01:50;;;;;;;12.27;7.80;;;;;;;;;;5068897;28;20059;-69
2021/03/07 01:04:16;;;;;;;12.10;7.20;;;;;;;;;;5070755;28;20048;-70
2021/03/07 01:06:42;;;;;;;12.35;7.30;;;;;;;;;;5053479;28;20053;-70
2021/03/07 01:09:08;;;;;;;15.25;6.95;;;;;;;;;;5054253;28;20102;-70
2021/03/07 01:11:35;;;;;;;12.98;7.55;;;;;;;;;;5054078;28;20044;-69
2021/03/07 01:14:01;;;;;;;12.48;6.70;;;;;;;;;;5034268;28;20095;-69
2021/03/07 01:16:27;;;;;;;11.15;6.78;;;;;;;;;;5033472;28;20045;-69
2021/03/07 01:18:53;;;;;;;12.73;7.20;;;;;;;;;;5034171;28;20423;-69
2021/03/07 01:21:20;;;;;;;14.75;6.15;;;;;;;;;;5064740;28;20087;-69
2021/03/07 01:23:46;;;;;;;11.18;6.32;;;;;;;;;;5070550;28;20494;-70
2021/03/07 01:26:12;;;;;;;13.98;7.00;;;;;;;;;;5071096;28;20044;-69
2021/03/07 01:28:38;;;;;;;12.25;6.75;;;;;;;;;;5071621;28;20491;-69
2021/03/07 01:31:04;;;;;;;11.77;6.97;;;;;;;;;;5070300;28;20098;-70
2021/03/07 01:33:30;;;;;;;9.90;6.05;;;;;;;;;;5070868;28;20057;-69
2021/03/07 01:36:02;;;;;;;11.57;6.55;;;;;;;;;;5053359;28;20048;-70
2021/03/07 01:38:29;;;;;;;11.23;6.40;;;;;;;;;;5054325;28;20499;-70
2021/03/07 01:40:55;;;;;;;10.32;6.50;;;;;;;;;;5066960;28;20053;-69
2021/03/07 01:43:22;;;;;;;12.68;8.07;;;;;;;;;;5033543;28;20049;-69
2021/03/07 01:45:49;;;;;;;12.93;7.45;;;;;;;;;;5016841;28;20099;-69
2021/03/07 01:48:17;;;;;;;13.93;8.52;;;;;;;;;;5033815;28;20495;-70
2021/03/07 01:50:46;;;;;;;14.05;7.63;;;;;;;;;;5057861;28;20453;-71
2021/03/07 01:53:12;;;;;;;13.93;8.15;;;;;;;;;;5053754;28;20540;-69
2021/03/07 01:55:39;;;;;;;15.40;8.23;;;;;;;;;;5053155;28;20049;-69
2021/03/07 01:58:25;;;;;;;11.57;7.53;;;;;;;;;;5053810;28;20411;-69
2021/03/07 02:00:51;;;;;;;12.48;7.45;;;;;;;;;;5050248;28;20049;-69
2021/03/07 02:03:17;;;;;;;12.73;8.18;;;;;;;;;;5033437;28;20053;-69
2021/03/07 02:05:45;;;;;;;14.20;8.73;;;;;;;;;;5050597;28;20080;-69
2021/03/07 02:08:11;;;;;;;12.65;7.88;;;;;;;;;;5033529;28;20111;-70
2021/03/07 02:10:38;;;;;;;15.32;7.82;;;;;;;;;;5033600;28;20045;-69
2021/03/07 02:13:12;;;;;;;10.40;7.03;;;;;;;;;;5033541;28;20048;-69
2021/03/07 02:15:40;;;;;;;12.48;7.60;;;;;;;;;;5016444;28;20045;-69
2021/03/07 02:18:08;;;;;;;13.57;7.95;;;;;;;;;;5033761;28;20132;-69
2021/03/07 02:20:36;;;;;;;13.02;8.05;;;;;;;;;;5032146;28;20049;-69
2021/03/07 02:23:12;;;;;;;14.85;8.10;;;;;;;;;;5017514;28;20396;-69
2021/03/07 02:25:38;;;;;;;14.70;8.30;;;;;;;;;;5016834;28;20107;-69
2021/03/07 02:28:07;;;;;;;11.98;7.65;;;;;;;;;;5017444;28;20598;-70
2021/03/07 02:30:34;;;;;;;10.88;7.25;;;;;;;;;;5033503;28;20061;-70
2021/03/07 02:33:03;;;;;;;12.35;7.15;;;;;;;;;;5033166;28;20092;-70
2021/03/07 02:35:30;;;;;;;14.43;7.80;;;;;;;;;;5032535;28;20557;-69
2021/03/07 02:37:58;;;;;;;13.30;7.25;;;;;;;;;;5033329;28;20057;-69
2021/03/07 02:40:25;;;;;;;15.35;7.40;;;;;;;;;;5017421;28;20049;-69
2021/03/07 02:43:08;;;;;;;11.48;7.20;;;;;;;;;;5020851;28;20569;-69
2021/03/07 02:45:34;;;;;;;12.38;7.45;;;;;;;;;;5020970;28;20041;-69
2021/03/07 02:48:01;;;;;;;12.73;6.70;;;;;;;;;;5051676;28;20106;-69
2021/03/07 02:50:29;;;;;;;9.98;7.03;;;;;;;;;;5036800;28;20048;-69
2021/03/07 02:53:02;;;;;;;11.45;7.32;;;;;;;;;;5037249;28;20095;-69
2021/03/07 02:55:29;;;;;;;14.35;7.57;;;;;;;;;;5056356;28;20070;-69
2021/03/07 02:57:56;;;;;;;10.75;7.13;;;;;;;;;;5056851;28;20095;-69
2021/03/07 03:00:22;;;;;;;17.25;7.43;;;;;;;;;;5056471;28;20094;-69
2021/03/07 03:02:48;;;;;;;13.48;7.63;;;;;;;;;;5056659;28;20465;-69
2021/03/07 03:05:14;;;;;;;11.63;7.43;;;;;;;;;;5056180;28;20055;-69
2021/03/07 03:07:41;;;;;;;11.63;7.80;;;;;;;;;;5056121;28;20135;-69
2021/03/07 03:10:08;;;;;;;14.90;6.65;;;;;;;;;;5056487;28;20053;-69
2021/03/07 03:12:35;;;;;;;11.75;6.75;;;;;;;;;;5056427;28;20049;-69
2021/03/07 03:15:04;;;;;;;14.82;7.80;;;;;;;;;;5056468;28;20487;-69
2021/03/07 03:17:30;;;;;;;14.90;6.97;;;;;;;;;;5055886;28;20052;-69
2021/03/07 03:19:56;;;;;;;12.63;6.90;;;;;;;;;;5039838;28;20049;-69
2021/03/07 03:22:22;;;;;;;11.70;7.50;;;;;;;;;;5056141;28;20072;-70
2021/03/07 03:24:49;;;;;;;11.25;7.00;;;;;;;;;;5056379;28;20040;-70
2021/03/07 03:27:15;;;;;;;13.68;7.57;;;;;;;;;;5052195;28;20492;-69
2021/03/07 03:29:41;;;;;;;10.73;6.63;;;;;;;;;;5036209;28;20122;-69
2021/03/07 03:32:10;;;;;;;11.50;6.57;;;;;;;;;;5035915;28;20049;-69
2021/03/07 03:34:37;;;;;;;9.73;6.07;;;;;;;;;;5020162;28;20421;-69
2021/03/07 03:37:03;;;;;;;12.48;7.57;;;;;;;;;;5035308;28;20503;-69
2021/03/07 03:39:30;;;;;;;10.02;6.32;;;;;;;;;;5019577;28;20262;-69
2021/03/07 03:41:59;;;;;;;8.65;5.90;;;;;;;;;;5036018;28;20057;-69
2021/03/07 03:44:29;;;;;;;9.60;5.45;;;;;;;;;;5036081;28;20057;-69
2021/03/07 03:46:56;;;;;;;9.25;5.93;;;;;;;;;;5026730;28;20049;-69
2021/03/07 03:49:38;;;;;;;10.63;5.80;;;;;;;;;;5026588;28;20071;-69
2021/03/07 03:52:06;;;;;;;10.50;5.95;;;;;;;;;;5057061;28;20052;-69
2021/03/07 03:54:43;;;;;;;9.45;5.70;;;;;;;;;;5071841;28;20064;-69
2021/03/07 03:57:09;;;;;;;9.93;5.57;;;;;;;;;;5050929;28;20053;-69
2021/03/07 03:59:36;;;;;;;10.27;5.97;;;;;;;;;;5019011;28;20464;-69
2021/03/07 04:02:02;;;;;;;10.18;5.70;;;;;;;;;;5019225;28;20076;-69
2021/03/07 04:04:29;;;;;;;12.32;6.10;;;;;;;;;;5019161;28;20048;-69
2021/03/07 04:06:56;;;;;;;7.47;4.60;;;;;;;;;;5026041;28;20203;-69
2021/03/07 04:09:22;;;;;;;9.93;6.70;;;;;;;;;;5035383;28;20044;-69
2021/03/07 04:11:48;;;;;;;9.85;5.82;;;;;;;;;;5035349;28;20049;-69
2021/03/07 04:14:16;;;;;;;10.98;6.25;;;;;;;;;;5035189;28;20048;-69
2021/03/07 04:16:43;;;;;;;8.95;5.93;;;;;;;;;;5018393;28;20049;-69
2021/03/07 04:19:09;;;;;;;11.07;5.60;;;;;;;;;;5019241;28;20055;-69
2021/03/07 04:21:38;;;;;;;8.60;5.25;;;;;;;;;;5052801;28;20056;-70
2021/03/07 04:24:04;;;;;;;9.73;6.03;;;;;;;;;;5019046;28;20045;-69
2021/03/07 04:26:31;;;;;;;9.95;6.43;;;;;;;;;;5034378;28;20052;-69
2021/03/07 04:28:58;;;;;;;9.27;5.88;;;;;;;;;;5035313;28;20340;-69
2021/03/07 04:31:24;;;;;;;10.38;6.28;;;;;;;;;;5051187;28;20131;-69
2021/03/07 04:33:50;;;;;;;11.02;6.95;;;;;;;;;;5086693;23;20053;-74
2021/03/07 04:36:16;;;;;;;11.15;5.90;;;;;;;;;;5034346;28;20090;-74
2021/03/07 04:38:42;;;;;;;11.90;6.75;;;;;;;;;;5035100;28;20053;-74
2021/03/07 04:41:08;;;;;;;13.52;6.88;;;;;;;;;;5052671;28;20056;-74
2021/03/07 04:43:50;;;;;;;8.73;6.35;;;;;;;;;;5019387;28;20077;-74
2021/03/07 04:46:20;;;;;;;10.98;6.63;;;;;;;;;;5027321;28;20046;-74
2021/03/07 04:48:47;;;;;;;8.23;6.03;;;;;;;;;;5028128;28;20046;-74
2021/03/07 04:51:13;;;;;;;9.32;6.70;;;;;;;;;;5026616;28;20084;-74
2021/03/07 04:53:39;;;;;;;10.18;6.00;;;;;;;;;;5015100;28;20075;-74
2021/03/07 04:56:05;;;;;;;11.20;6.25;;;;;;;;;;5051779;28;20094;-74
2021/03/07 04:58:34;;;;;;;10.43;6.57;;;;;;;;;;5052374;28;20411;-74
2021/03/07 05:01:00;;;;;;;11.90;6.18;;;;;;;;;;5051216;28;20053;-74
2021/03/07 05:03:27;;;;;;;9.35;6.35;;;;;;;;;;5050988;28;20126;-74
2021/03/07 05:05:53;;;;;;;10.88;6.63;;;;;;;;;;5066843;28;20095;-74
2021/03/07 05:08:20;;;;;;;13.43;6.57;;;;;;;;;;5046568;28;20046;-74
2021/03/07 05:10:46;;;;;;;11.32;6.50;;;;;;;;;;5043789;28;20083;-74
2021/03/07 05:13:12;;;;;;;11.68;6.07;;;;;;;;;;5032882;28;20053;-73
2021/03/07 05:15:39;;;;;;;11.30;5.90;;;;;;;;;;5031473;28;20080;-74
2021/03/07 05:18:06;;;;;;;12.48;6.72;;;;;;;;;;5022306;28;20095;-73
2021/03/07 05:20:33;;;;;;;9.32;5.85;;;;;;;;;;5050771;28;20057;-73
2021/03/07 05:22:59;;;;;;;10.63;6.50;;;;;;;;;;5050697;28;20080;-74
2021/03/07 05:25:25;;;;;;;9.02;5.50;;;;;;;;;;5051145;28;20206;-73
2021/03/07 05:27:52;;;;;;;8.77;5.25;;;;;;;;;;5067348;28;20049;-73
2021/03/07 05:30:19;;;;;;;11.75;5.75;;;;;;;;;;5050715;28;20048;-74
2021/03/07 05:32:45;;;;;;;14.20;6.95;;;;;;;;;;5039639;28;20057;-73
2021/03/07 05:35:11;;;;;;;11.85;6.55;;;;;;;;;;5031441;28;20046;-73
2021/03/07 05:37:38;;;;;;;9.50;5.10;;;;;;;;;;5030348;28;20104;-73
2021/03/07 05:40:05;;;;;;;9.68;5.00;;;;;;;;;;5030935;28;20073;-73
2021/03/07 05:42:32;;;;;;;7.90;5.28;;;;;;;;;;5014360;28;20504;-73
2021/03/07 05:45:05;;;;;;;7.40;5.30;;;;;;;;;;5031908;28;20049;-73
2021/03/07 05:47:31;;;;;;;9.15;4.65;;;;;;;;;;5031425;28;20106;-73
2021/03/07 05:49:57;;;;;;;10.13;4.97;;;;;;;;;;5014213;28;20049;-74
2021/03/07 05:52:24;;;;;;;10.40;5.80;;;;;;;;;;5031466;28;20050;-74
2021/03/07 05:54:54;;;;;;;8.98;4.85;;;;;;;;;;5014141;28;20049;-74
2021/03/07 05:57:21;;;;;;;9.00;4.78;;;;;;;;;;5029788;28;20053;-74
2021/03/07 05:59:48;;;;;;;7.53;4.90;;;;;;;;;;5014124;28;20203;-73
2021/03/07 06:02:15;;;;;;;9.15;5.50;;;;;;;;;;5013872;28;20050;-74
2021/03/07 06:04:42;;;;;;;10.15;5.25;;;;;;;;;;5014062;28;20053;-73
2021/03/07 06:07:28;;;;;;;10.02;5.45;;;;;;;;;;5030108;28;20057;-73
2021/03/07 06:10:18;;;;;;;8.50;5.03;;;;;;;;;;5047035;28;20083;-74
2021/03/07 06:13:02;;;;;;;6.28;4.65;;;;;;;;;;5046832;28;20045;-74
2021/03/07 06:15:48;;;;;;;8.73;5.28;;;;;;;;;;5029882;28;20512;-73
2021/03/07 06:18:19;;;;;;;9.65;5.43;;;;;;;;;;5014306;28;20049;-73
2021/03/07 06:20:47;;;;;;;8.57;4.90;;;;;;;;;;5035345;28;20049;-73
2021/03/07 06:23:13;;;;;;;7.22;5.18;;;;;;;;;;5017876;28;20050;-74
2021/03/07 06:25:51;;;;;;;9.30;5.95;;;;;;;;;;5017174;28;20049;-73
2021/03/07 06:28:25;;;;;;;9.27;5.38;;;;;;;;;;5050574;28;20140;-74
2021/03/07 06:30:54;;;;;;;10.73;6.35;;;;;;;;;;5034160;28;20132;-74
2021/03/07 06:33:32;;;;;;;7.70;5.07;;;;;;;;;;5050297;28;20046;-73
2021/03/07 06:36:36;;;;;;;13.35;5.85;;;;;;;;;;5017216;28;20092;-73
2021/03/07 06:39:05;;;;;;;7.97;5.47;;;;;;;;;;5013001;28;20053;-73
2021/03/07 06:41:32;;;;;;;9.93;5.82;;;;;;;;;;5031231;28;20045;-74
2021/03/07 06:44:09;;;;;;;11.52;5.97;;;;;;;;;;5050149;28;20107;-73
2021/03/07 06:46:38;;;;;;;8.48;5.88;;;;;;;;;;5032936;28;20462;-73
2021/03/07 06:49:04;;;;;;;9.18;6.22;;;;;;;;;;5034798;28;20053;-73
2021/03/07 06:51:35;;;;;;;10.07;5.90;;;;;;;;;;5030292;28;20144;-74
2021/03/07 06:54:21;;;;;;;8.60;5.28;;;;;;;;;;5032585;28;20088;-74
2021/03/07 06:56:49;;;;;;;8.30;5.60;;;;;;;;;;5030886;28;20053;-75
2021/03/07 06:59:17;;;;;;;12.23;6.47;;;;;;;;;;5032439;28;20108;-73
2021/03/07 07:01:47;;;;;;;9.32;5.63;;;;;;;;;;5032283;28;20053;-73
2021/03/07 07:04:15;;;;;;;9.98;5.65;;;;;;;;;;5047068;28;20049;-74
2021/03/07 07:06:42;;;;;;;9.45;5.82;;;;;;;;;;5030295;28;20072;-74
2021/03/07 07:09:09;;;;;;;8.27;5.82;;;;;;;;;;5014703;28;20045;-74
2021/03/07 07:11:43;;;;;;;8.82;5.55;;;;;;;;;;5030976;28;20057;-75
2021/03/07 07:14:10;;;;;;;8.95;5.45;;;;;;;;;;5014564;28;20516;-74
2021/03/07 07:16:36;;;;;;;8.75;5.90;;;;;;;;;;5013838;28;20053;-74
2021/03/07 07:19:03;;;;;;;22.65;12.93;;;;;;;;;;5032020;28;20123;-73
2021/03/07 07:21:29;;;;;;;25.67;13.15;;;;;;;;;;5014418;28;20679;-73
2021/03/07 07:23:55;;;;;;;19.77;11.98;;;;;;;;;;5014452;28;20077;-75
2021/03/07 07:26:22;;;;;;;11.70;6.68;;;;;;;;;;5013541;28;20534;-75
2021/03/07 07:28:52;;;;;;;11.85;6.70;;;;;;;;;;5030948;28;20080;-76
2021/03/07 07:31:44;;;;;;;9.23;5.18;;;;;;;;;;5030323;28;20053;-75
2021/03/07 07:34:16;;;;;;;11.63;6.25;;;;;;;;;;5031977;28;20482;-75
2021/03/07 07:36:52;;;;;;;10.02;6.13;;;;;;;;;;5013690;28;20092;-74
2021/03/07 07:39:33;;;;;;;8.43;5.93;;;;;;;;;;5030597;28;20099;-75
2021/03/07 07:42:22;;;;;;;8.27;5.20;;;;;;;;;;5030839;28;20104;-74
2021/03/07 07:44:49;;;;;;;7.95;5.15;;;;;;;;;;5030505;28;20577;-73
2021/03/07 07:47:15;;;;;;;9.70;5.72;;;;;;;;;;5046206;28;20103;-74
2021/03/07 07:49:52;;;;;;;8.63;5.30;;;;;;;;;;5014003;28;20143;-73
2021/03/07 07:52:21;;;;;;;8.77;4.75;;;;;;;;;;5029942;28;20556;-73
2021/03/07 07:54:54;;;;;;;6.72;3.92;;;;;;;;;;5031547;28;20080;-74
2021/03/07 07:57:36;;;;;;;6.90;4.43;;;;;;;;;;5030804;28;20077;-75
2021/03/07 08:00:10;;;;;;;6.88;4.50;;;;;;;;;;5034072;28;20050;-74
2021/03/07 08:02:51;;;;;;;7.38;4.57;;;;;;;;;;5030140;28;20057;-75
2021/03/07 08:05:20;;;;;;;8.32;4.80;;;;;;;;;;5029713;28;20045;-74
2021/03/07 08:08:06;;;;;;;7.63;5.10;;;;;;;;;;5031277;28;20061;-74
2021/03/07 08:10:39;;;;;;;6.95;4.97;;;;;;;;;;5014730;28;20511;-74
2021/03/07 08:13:12;;;;;;;5.35;3.83;;;;;;;;;;5031258;28;20049;-74
2021/03/07 08:15:43;;;;;;;6.68;4.85;;;;;;;;;;5029828;28;20511;-74
2021/03/07 08:18:10;;;;;;;6.15;4.68;;;;;;;;;;5030264;28;20152;-75
2021/03/07 08:20:42;;;;;;;7.50;4.90;;;;;;;;;;5031105;28;20137;-74
2021/03/07 08:23:15;;;;;;;7.80;4.85;;;;;;;;;;5030502;28;20128;-72
2021/03/07 08:25:54;;;;;;;8.20;4.47;;;;;;;;;;5029105;28;20084;-74
2021/03/07 08:28:30;;;;;;;6.65;4.47;;;;;;;;;;5030836;28;20053;-75
2021/03/07 08:30:59;;;;;;;7.10;4.65;;;;;;;;;;5031042;28;20049;-74
2021/03/07 08:33:30;;;;;;;7.95;4.95;;;;;;;;;;5030463;28;20053;-77
2021/03/07 08:36:21;;;;;;;7.68;5.28;;;;;;;;;;5013374;28;20049;-71
2021/03/07 08:38:53;;;;;;;8.75;5.80;;;;;;;;;;5023749;28;20103;-70
2021/03/07 08:41:32;;;;;;;6.72;4.88;;;;;;;;;;5017166;28;20504;-72
2021/03/07 08:43:59;;;;;;;7.30;4.97;;;;;;;;;;5031300;28;20558;-72
2021/03/07 08:46:26;;;;;;;7.47;5.45;;;;;;;;;;5014121;28;20046;-73
2021/03/07 08:49:09;;;;;;;7.43;4.47;;;;;;;;;;5032583;28;20099;-72
2021/03/07 08:51:36;;;;;;;8.13;4.88;;;;;;;;;;5029834;28;20520;-70
2021/03/07 08:54:04;;;;;;;6.97;4.82;;;;;;;;;;5020734;28;20049;-70
2021/03/07 08:56:34;;;;;;;6.75;4.75;;;;;;;;;;5015863;28;20046;-68
2021/03/07 08:59:00;;;;;;;7.70;5.28;;;;;;;;;;5016159;28;20054;-69
2021/03/07 09:01:26;;;;;;;7.28;4.97;;;;;;;;;;5016599;28;20053;-70
2021/03/07 09:03:57;;;;;;;7.07;4.70;;;;;;;;;;5034545;28;20045;-72
2021/03/07 09:06:45;;;;;;;6.63;5.05;;;;;;;;;;5019170;28;20472;-69
2021/03/07 09:09:21;;;;;;;8.18;5.32;;;;;;;;;;5018359;28;20092;-69
2021/03/07 09:11:58;;;;;;;8.65;5.45;;;;;;;;;;5017787;28;20065;-69
2021/03/07 09:14:38;;;;;;;8.77;5.32;;;;;;;;;;5020758;28;20566;-69
2021/03/07 09:17:21;;;;;;;8.18;5.40;;;;;;;;;;5020068;28;20041;-69
2021/03/07 09:19:48;;;;;;;7.70;5.57;;;;;;;;;;5024876;28;20412;-68
2021/03/07 09:22:19;;;;;;;6.32;4.75;;;;;;;;;;5021324;28;20054;-70
2021/03/07 09:24:57;;;;;;;7.35;5.15;;;;;;;;;;5022371;28;20053;-73
2021/03/07 09:27:25;;;;;;;7.10;4.93;;;;;;;;;;5018834;28;20053;-70
2021/03/07 09:30:03;;;;;;;7.68;5.68;;;;;;;;;;5021130;28;20045;-70
2021/03/07 09:32:33;;;;;;;6.30;5.03;;;;;;;;;;5018954;28;20088;-70
2021/03/07 09:35:10;;;;;;;8.23;5.00;;;;;;;;;;5017447;28;20497;-69
2021/03/07 09:37:36;;;;;;;6.30;5.30;;;;;;;;;;5017734;28;20054;-71
2021/03/07 09:40:02;;;;;;;7.47;5.35;;;;;;;;;;5020462;28;20057;-70
2021/03/07 09:42:28;;;;;;;8.50;5.47;;;;;;;;;;5019169;28;20092;-71
2021/03/07 09:44:54;;;;;;;7.78;4.70;;;;;;;;;;5019357;28;20100;-70
2021/03/07 09:47:21;;;;;;;6.95;5.03;;;;;;;;;;5015391;28;20718;-70
2021/03/07 09:49:47;;;;;;;7.35;5.10;;;;;;;;;;5033827;28;20053;-71
2021/03/07 09:52:14;;;;;;;7.65;5.50;;;;;;;;;;5032494;28;20104;-70
2021/03/07 09:54:53;;;;;;;8.40;4.85;;;;;;;;;;5018318;28;20100;-70
2021/03/07 09:57:39;;;;;;;8.13;5.45;;;;;;;;;;5020716;28;20050;-70
2021/03/07 10:00:05;;;;;;;6.97;5.75;;;;;;;;;;5016859;28;20093;-70
2021/03/07 10:02:36;;;;;;;7.88;5.43;;;;;;;;;;5022129;28;20100;-71
2021/03/07 10:05:13;;;;;;;8.98;6.65;;;;;;;;;;5016898;28;20056;-71
2021/03/07 10:07:39;;;;;;;8.82;6.60;;;;;;;;;;5015910;28;20053;-71
2021/03/07 10:10:11;;;;;;;8.07;6.00;;;;;;;;;;5019571;28;20053;-70
2021/03/07 10:12:48;;;;;;;9.25;6.80;;;;;;;;;;5016247;28;20092;-71
2021/03/07 10:15:31;;;;;;;9.43;5.90;;;;;;;;;;5018366;28;20123;-70
2021/03/07 10:18:17;;;;;;;9.27;7.10;;;;;;;;;;5019076;28;20187;-71
2021/03/07 10:20:48;;;;;;;9.68;6.05;;;;;;;;;;5021201;28;20589;-70
2021/03/07 10:23:15;;;;;;;10.85;7.93;;;;;;;;;;5030616;28;20050;-71
2021/03/07 10:25:48;;;;;;;11.95;8.13;;;;;;;;;;5020615;28;20104;-70
2021/03/07 10:28:34;;;;;;;9.95;7.85;;;;;;;;;;5018656;28;20512;-71
2021/03/07 10:31:08;;;;;;;9.07;6.93;;;;;;;;;;5019070;28;20054;-71
2021/03/07 10:33:35;;;;;;;15.00;8.07;;;;;;;;;;5033884;28;20080;-70
2021/03/07 10:36:15;;;;;;;10.45;7.45;;;;;;;;;;5016172;28;20108;-70
2021/03/07 10:38:48;;;;;;;12.35;8.45;;;;;;;;;;5016891;28;20050;-70
2021/03/07 10:41:24;;;;;;;;;;;;;;;;;;5022468;28;20041;-70
2021/03/07 10:43:52;;;;;;;11.45;8.75;;;;;;;;;;5032799;28;19944;-69
2021/03/07 10:46:26;;;;;;;13.15;8.68;;;;;;;;;;5017677;28;20096;-71
2021/03/07 10:49:09;;;;;;;12.00;8.15;;;;;;;;;;5018530;28;20120;-70
2021/03/07 10:51:36;;;;;;;12.52;8.63;;;;;;;;;;5016488;28;20053;-70
2021/03/07 10:54:05;;;;;;;12.68;8.90;;;;;;;;;;5019260;28;20046;-70
2021/03/07 10:56:37;;;;;;;13.88;8.65;;;;;;;;;;5017927;28;20111;-70
2021/03/07 10:59:04;;;;;;;12.45;8.88;;;;;;;;;;5016752;28;20085;-69
2021/03/07 11:01:30;;;;;;;8.80;6.75;;;;;;;;;;5018438;28;20501;-69
2021/03/07 11:03:56;;;;;;;11.10;8.02;;;;;;;;;;5034308;28;20077;-70
2021/03/07 11:06:22;;;;;;;11.70;7.93;;;;;;;;;;5018908;28;20042;-68
2021/03/07 11:08:50;;;;;;;13.00;9.35;;;;;;;;;;5024899;28;20104;-68
2021/03/07 11:11:16;;;;;;;10.88;7.93;;;;;;;;;;5023833;28;20103;-68
2021/03/07 11:13:42;;;;;;;10.07;8.35;;;;;;;;;;5023972;28;20107;-69
2021/03/07 11:16:08;;;;;;;11.85;8.60;;;;;;;;;;5026303;28;20042;-69
2021/03/07 11:18:35;;;;;;;12.27;8.80;;;;;;;;;;5020242;28;20061;-70
2021/03/07 11:21:03;;;;;;;9.98;7.88;;;;;;;;;;5022791;28;20128;-69
2021/03/07 11:23:29;;;;;;;11.38;7.88;;;;;;;;;;5017218;28;20058;-69
2021/03/07 11:25:55;;;;;;;11.80;8.55;;;;;;;;;;5017863;28;20046;-69
2021/03/07 11:28:22;;;;;;;11.75;8.43;;;;;;;;;;5018601;28;20116;-69
2021/03/07 11:30:48;;;;;;;11.82;8.50;;;;;;;;;;5020813;28;20114;-69
2021/03/07 11:33:14;;;;;;;10.30;8.10;;;;;;;;;;5022227;28;20084;-69
2021/03/07 11:35:41;;;;;;;10.85;8.77;;;;;;;;;;5018767;28;20508;-70
2021/03/07 11:38:07;;;;;;;11.10;8.10;;;;;;;;;;5018917;28;20570;-70
2021/03/07 11:40:33;;;;;;;11.73;8.75;;;;;;;;;;5017697;28;20128;-69
2021/03/07 11:42:59;;;;;;;14.32;8.55;;;;;;;;;;5019459;28;20116;-70
2021/03/07 11:45:25;;;;;;;10.70;8.63;;;;;;;;;;5017174;28;20081;-70
2021/03/07 11:47:51;;;;;;;10.15;7.93;;;;;;;;;;5021270;28;20226;-70
2021/03/07 11:50:18;;;;;;;13.13;8.88;;;;;;;;;;5017208;28;20053;-70
2021/03/07 11:52:44;;;;;;;9.98;7.65;;;;;;;;;;5021650;28;20054;-70
2021/03/07 11:55:11;;;;;;;10.38;7.60;;;;;;;;;;5016912;28;20169;-70
2021/03/07 11:57:37;;;;;;;10.38;7.93;;;;;;;;;;5018319;28;20053;-70
2021/03/07 12:00:04;;;;;;;11.30;8.30;;;;;;;;;;5017132;28;20050;-70
2021/03/07 12:02:30;;;;;;;11.52;8.30;;;;;;;;;;5018148;28;20385;-70
2021/03/07 12:04:56;;;;;;;9.70;8.00;;;;;;;;;;5017267;28;20473;-70
2021/03/07 12:07:22;;;;;;;11.05;8.27;;;;;;;;;;5017914;28;20077;-70
2021/03/07 12:09:48;;;;;;;10.98;8.15;;;;;;;;;;5017294;28;20058;-70
2021/03/07 12:12:14;;;;;;;10.85;7.93;;;;;;;;;;5034540;28;20500;-70
2021/03/07 12:14:42;;;;;;;10.23;7.95;;;;;;;;;;5016790;28;20053;-69
2021/03/07 12:17:08;;;;;;;10.50;7.70;;;;;;;;;;5016845;28;20167;-70
2021/03/07 12:19:34;;;;;;;11.45;7.93;;;;;;;;;;5017436;28;20128;-70
2021/03/07 12:22:00;;;;;;;10.27;7.63;;;;;;;;;;5018034;28;20060;-70
2021/03/07 12:24:29;;;;;;;10.57;8.35;;;;;;;;;;5017233;28;20053;-70
2021/03/07 12:27:04;;;;;;;12.10;7.88;;;;;;;;;;5018511;28;20064;-70
2021/03/07 12:29:39;;;;;;;10.80;8.02;;;;;;;;;;5017706;28;20501;-71
2021/03/07 12:32:05;;;;;;;11.35;8.00;;;;;;;;;;5019616;28;20512;-70
2021/03/07 12:34:33;;;;;;;10.10;7.72;;;;;;;;;;5028299;28;20129;-69
2021/03/07 12:36:59;;;;;;;10.82;8.80;;;;;;;;;;5018676;28;20049;-70
2021/03/07 12:39:25;;;;;;;10.25;7.93;;;;;;;;;;5018823;28;20504;-70
2021/03/07 12:41:51;;;;;;;9.98;8.02;;;;;;;;;;5016938;28;20686;-70
2021/03/07 12:44:20;;;;;;;12.90;8.85;;;;;;;;;;5016961;28;20054;-70
2021/03/07 12:46:47;;;;;;;11.13;8.15;;;;;;;;;;5016936;28;20038;-70
2021/03/07 12:49:14;;;;;;;9.73;8.05;;;;;;;;;;5016483;28;20428;-70
2021/03/07 12:51:41;;;;;;;11.75;8.23;;;;;;;;;;5018460;28;20289;-70
2021/03/07 12:54:07;;;;;;;11.90;8.32;;;;;;;;;;5015235;28;20057;-70
2021/03/07 12:56:35;;;;;;;9.77;7.47;;;;;;;;;;5019394;28;20873;-70
2021/03/07 12:59:02;;;;;;;12.55;8.13;;;;;;;;;;5016316;28;20053;-70
2021/03/07 13:01:28;;;;;;;9.45;7.93;;;;;;;;;;5017816;28;20049;-70
2021/03/07 13:03:56;;;;;;;9.30;7.82;;;;;;;;;;5016059;28;20137;-70
2021/03/07 13:06:22;;;;;;;9.48;7.82;;;;;;;;;;5016430;28;20081;-70
2021/03/07 13:08:49;;;;;;;9.55;7.53;;;;;;;;;;5016394;28;20077;-70
2021/03/07 13:11:15;;;;;;;9.68;7.82;;;;;;;;;;5017686;28;20554;-70
2021/03/07 13:13:41;;;;;;;11.13;7.88;;;;;;;;;;5018813;28;20085;-70
2021/03/07 13:16:11;;;;;;;10.75;8.25;;;;;;;;;;5017584;28;20045;-71
2021/03/07 13:18:37;;;;;;;11.00;8.85;;;;;;;;;;5016537;28;20109;-70
2021/03/07 13:21:03;;;;;;;8.13;7.32;;;;;;;;;;5016186;28;20064;-70
2021/03/07 13:23:31;;;;;;;10.20;8.30;;;;;;;;;;5016445;28;20103;-70
2021/03/07 13:25:58;;;;;;;9.05;7.68;;;;;;;;;;5013509;28;20121;-70
2021/03/07 13:28:24;;;;;;;8.73;7.10;;;;;;;;;;5017614;28;20464;-70
2021/03/07 13:30:51;;;;;;;9.27;7.60;;;;;;;;;;5016868;28;20143;-70
2021/03/07 13:33:17;;;;;;;9.98;8.23;;;;;;;;;;5018999;28;20045;-70
2021/03/07 13:35:44;;;;;;;9.30;7.63;;;;;;;;;;5016773;28;20140;-70
2021/03/07 13:38:10;;;;;;;8.90;8.00;;;;;;;;;;5017308;28;20041;-70
2021/03/07 13:40:37;;;;;;;11.02;8.20;;;;;;;;;;5015397;28;20497;-70
2021/03/07 13:43:04;;;;;;;8.63;7.72;;;;;;;;;;5017146;28;20056;-70
2021/03/07 13:45:31;;;;;;;10.30;8.23;;;;;;;;;;5016374;28;20085;-70
2021/03/07 13:47:57;;;;;;;12.30;8.43;;;;;;;;;;5017493;28;20462;-70
2021/03/07 13:50:24;;;;;;;9.50;8.45;;;;;;;;;;5015298;28;20060;-70
2021/03/07 13:52:51;;;;;;;10.43;8.52;;;;;;;;;;5033561;28;20081;-70
2021/03/07 13:55:17;;;;;;;10.05;8.52;;;;;;;;;;5015029;28;20128;-70
2021/03/07 13:57:43;;;;;;;10.48;9.30;;;;;;;;;;5019883;28;20433;-70
2021/03/07 14:00:10;;;;;;;9.75;8.57;;;;;;;;;;5015287;28;20072;-70
2021/03/07 14:02:36;;;;;;;11.18;8.45;;;;;;;;;;5016299;28;20053;-70
2021/03/07 14:05:04;;;;;;;10.00;8.27;;;;;;;;;;5016152;28;20108;-70
2021/03/07 14:07:30;;;;;;;10.65;8.30;;;;;;;;;;5018264;28;20045;-70
2021/03/07 14:09:56;;;;;;;11.55;8.05;;;;;;;;;;5018970;28;20488;-70
2021/03/07 14:12:22;;;;;;;10.13;8.02;;;;;;;;;;5014650;28;20045;-70
2021/03/07 14:14:49;;;;;;;10.20;8.15;;;;;;;;;;5015839;28;20053;-70
2021/03/07 14:17:16;;;;;;;10.18;8.55;;;;;;;;;;5017063;28;20041;-72
2021/03/07 14:19:42;;;;;;;9.57;8.35;;;;;;;;;;5018067;28;20058;-72
2021/03/07 14:22:09;;;;;;;10.05;7.75;;;;;;;;;;5014551;28;20049;-72
2021/03/07 14:24:35;;;;;;;10.15;8.10;;;;;;;;;;5016234;28;20461;-72
2021/03/07 14:27:02;;;;;;;10.80;8.60;;;;;;;;;;5029317;28;20409;-71
2021/03/07 14:29:28;;;;;;;10.07;8.30;;;;;;;;;;5016932;28;20045;-72
2021/03/07 14:31:54;;;;;;;10.25;8.30;;;;;;;;;;5031347;28;20482;-72
2021/03/07 14:34:21;;;;;;;8.35;7.28;;;;;;;;;;5016872;28;20049;-71
2021/03/07 14:36:47;;;;;;;11.18;8.40;;;;;;;;;;5014100;28;20562;-73
2021/03/07 14:39:14;;;;;;;9.57;8.23;;;;;;;;;;5014204;28;20053;-70
2021/03/07 14:41:40;;;;;;;10.95;8.20;;;;;;;;;;5018686;28;20057;-75
2021/03/07 14:44:06;;;;;;;10.70;8.70;;;;;;;;;;5020883;28;20072;-70
2021/03/07 14:46:32;;;;;;;9.48;8.02;;;;;;;;;;5018780;28;20661;-71